Time;durP1;ratioP1;P1;durP2;ratioP2;P2;SDS_P1;SDS_P2;PMS_P1;PMS_P2;Temp;Humidity;BMP_temperature;BMP_pressure;BME280_temperature;BME280_humidity;BME280_pressure;Samples;Min_cycle;Max_cycle;Signal;HPM_P1;HPM_P2
2024/02/28 00:01:05;;;;;;;76.57;18.27;;;;;;;;;;5011735;28;20448;-72
2024/02/28 00:03:33;;;;;;;73.27;16.30;;;;;;;;;;5011348;28;20456;-72
2024/02/28 00:06:00;;;;;;;73.90;16.37;;;;;;;;;;5011704;28;20473;-72
2024/02/28 00:08:27;;;;;;;70.20;14.90;;;;;;;;;;5011724;28;20962;-72
2024/02/28 00:10:54;;;;;;;74.10;17.07;;;;;;;;;;5011820;28;20833;-72
2024/02/28 00:13:23;;;;;;;75.77;17.40;;;;;;;;;;5011708;28;20451;-72
2024/02/28 00:15:50;;;;;;;76.30;17.40;;;;;;;;;;5011308;28;20472;-71
2024/02/28 00:18:19;;;;;;;75.70;17.87;;;;;;;;;;5011635;28;20450;-72
2024/02/28 00:20:46;;;;;;;73.10;16.50;;;;;;;;;;5011668;28;20452;-72
2024/02/28 00:23:13;;;;;;;71.40;15.20;;;;;;;;;;5011606;28;20460;-72
2024/02/28 00:25:40;;;;;;;73.43;15.43;;;;;;;;;;5011319;28;20471;-72
2024/02/28 00:28:07;;;;;;;77.90;17.57;;;;;;;;;;5011681;28;20458;-72
2024/02/28 00:30:35;;;;;;;75.30;18.10;;;;;;;;;;5011461;28;20822;-72
2024/02/28 00:33:02;;;;;;;79.77;18.50;;;;;;;;;;5011730;28;20554;-72
2024/02/28 00:35:33;;;;;;;76.30;16.97;;;;;;;;;;5011046;28;20444;-72
2024/02/28 00:38:00;;;;;;;73.30;17.00;;;;;;;;;;5011409;28;20531;-72
2024/02/28 00:40:28;;;;;;;73.73;17.30;;;;;;;;;;5012249;28;20459;-71
2024/02/28 00:42:55;;;;;;;75.00;17.23;;;;;;;;;;5014978;28;20482;-72
2024/02/28 00:45:22;;;;;;;72.50;16.23;;;;;;;;;;5014906;28;20451;-72
2024/02/28 00:47:49;;;;;;;72.63;16.10;;;;;;;;;;5014715;28;20951;-72
2024/02/28 00:50:16;;;;;;;75.27;16.30;;;;;;;;;;5014938;28;20455;-72
2024/02/28 00:52:45;;;;;;;73.23;16.70;;;;;;;;;;5007091;28;20459;-72
2024/02/28 00:55:12;;;;;;;74.43;15.60;;;;;;;;;;5023489;28;20454;-72
2024/02/28 00:57:39;;;;;;;72.37;16.90;;;;;;;;;;5036476;28;20487;-72
2024/02/28 01:00:09;;;;;;;77.30;17.20;;;;;;;;;;5036822;28;20823;-72
2024/02/28 01:05:40;;;;;;;74.63;15.57;;;;;;;;;;5033502;28;20459;-72
2024/02/28 01:08:09;;;;;;;74.30;16.80;;;;;;;;;;5034150;28;20458;-72
2024/02/28 01:10:36;;;;;;;76.90;16.07;;;;;;;;;;5033924;28;20447;-72
2024/02/28 01:13:03;;;;;;;72.73;15.57;;;;;;;;;;5033867;28;20459;-72
2024/02/28 01:15:30;;;;;;;72.00;15.83;;;;;;;;;;5033821;28;20450;-72
2024/02/28 01:17:57;;;;;;;75.43;16.60;;;;;;;;;;5034096;28;20561;-72
2024/02/28 01:20:24;;;;;;;73.77;16.03;;;;;;;;;;5016805;28;20447;-72
2024/02/28 01:22:51;;;;;;;73.43;16.30;;;;;;;;;;5014333;28;20455;-72
2024/02/28 01:25:20;;;;;;;72.77;15.67;;;;;;;;;;5013824;28;20457;-72
2024/02/28 01:27:47;;;;;;;74.00;16.13;;;;;;;;;;5013978;28;20445;-72
2024/02/28 01:30:14;;;;;;;75.77;16.63;;;;;;;;;;5029894;28;20828;-72
2024/02/28 01:32:41;;;;;;;72.63;15.57;;;;;;;;;;5033822;28;20444;-72
2024/02/28 01:35:10;;;;;;;71.30;15.17;;;;;;;;;;5033629;28;20455;-72
2024/02/28 01:37:37;;;;;;;76.30;16.60;;;;;;;;;;5033601;28;20497;-72
2024/02/28 01:40:05;;;;;;;75.27;16.10;;;;;;;;;;5033361;28;20458;-72
2024/02/28 01:42:33;;;;;;;75.90;17.30;;;;;;;;;;5033554;28;20504;-72
2024/02/28 01:45:00;;;;;;;75.93;16.80;;;;;;;;;;5033494;28;20447;-72
2024/02/28 01:47:27;;;;;;;76.50;17.00;;;;;;;;;;5033159;28;20994;-72
2024/02/28 01:49:55;;;;;;;77.50;18.00;;;;;;;;;;5028584;28;20475;-72
2024/02/28 01:52:23;;;;;;;76.63;15.67;;;;;;;;;;5021741;28;20504;-72
2024/02/28 01:54:50;;;;;;;74.20;16.70;;;;;;;;;;5032925;28;20451;-72
2024/02/28 01:57:17;;;;;;;76.10;16.57;;;;;;;;;;5033327;28;20497;-72
2024/02/28 01:59:45;;;;;;;74.50;15.90;;;;;;;;;;5033138;28;20447;-72
2024/02/28 02:02:13;;;;;;;73.37;15.93;;;;;;;;;;5033438;28;20864;-72
2024/02/28 02:04:40;;;;;;;72.67;15.80;;;;;;;;;;5033486;28;20450;-72
2024/02/28 02:07:08;;;;;;;78.13;17.07;;;;;;;;;;5032940;28;20466;-72
2024/02/28 02:09:36;;;;;;;77.93;17.57;;;;;;;;;;5032888;28;20450;-72
2024/02/28 02:12:03;;;;;;;75.73;17.40;;;;;;;;;;5033039;28;20458;-72
2024/02/28 02:14:30;;;;;;;76.93;17.10;;;;;;;;;;5032619;28;20463;-72
2024/02/28 02:16:58;;;;;;;77.97;18.57;;;;;;;;;;5032793;28;20831;-72
2024/02/28 02:19:26;;;;;;;76.27;18.00;;;;;;;;;;5032708;28;20828;-72
2024/02/28 02:24:58;;;;;;;75.90;17.60;;;;;;;;;;5032119;28;20937;-71
2024/02/28 02:27:26;;;;;;;81.13;18.10;;;;;;;;;;5032080;28;20474;-72
2024/02/28 02:29:53;;;;;;;79.63;17.63;;;;;;;;;;5012819;28;20506;-72
2024/02/28 02:32:20;;;;;;;77.60;18.67;;;;;;;;;;5012800;28;20959;-72
2024/02/28 02:34:47;;;;;;;77.10;17.50;;;;;;;;;;5012796;28;20817;-72
2024/02/28 02:37:14;;;;;;;76.27;16.80;;;;;;;;;;5012807;28;20864;-72
2024/02/28 02:39:41;;;;;;;80.87;19.13;;;;;;;;;;5031803;28;20486;-72
2024/02/28 02:42:09;;;;;;;76.97;17.60;;;;;;;;;;5032799;28;20517;-72
2024/02/28 02:44:37;;;;;;;79.00;17.23;;;;;;;;;;5031793;28;20446;-72
2024/02/28 02:47:04;;;;;;;74.57;16.80;;;;;;;;;;5032050;28;20543;-72
2024/02/28 02:49:31;;;;;;;76.87;17.40;;;;;;;;;;5032059;28;20455;-72
2024/02/28 02:51:58;;;;;;;78.90;17.80;;;;;;;;;;5032312;28;20450;-72
2024/02/28 02:54:25;;;;;;;79.87;18.33;;;;;;;;;;5032062;28;20528;-72
2024/02/28 02:56:52;;;;;;;75.57;17.23;;;;;;;;;;5020142;28;20518;-72
2024/02/28 02:59:21;;;;;;;74.90;16.23;;;;;;;;;;5012403;28;20443;-72
2024/02/28 03:01:50;;;;;;;76.97;17.40;;;;;;;;;;5004753;28;20956;-72
2024/02/28 03:04:17;;;;;;;79.70;18.97;;;;;;;;;;5011443;28;20456;-72
2024/02/28 03:06:44;;;;;;;75.30;16.87;;;;;;;;;;5012320;28;20919;-72
2024/02/28 03:09:11;;;;;;;79.90;18.83;;;;;;;;;;5012250;28;20448;-72
2024/02/28 03:11:38;;;;;;;78.30;17.90;;;;;;;;;;5012283;28;20451;-72
2024/02/28 03:14:05;;;;;;;75.40;17.33;;;;;;;;;;5011961;28;20458;-72
2024/02/28 03:16:37;;;;;;;77.40;18.57;;;;;;;;;;5011652;28;20475;-72
2024/02/28 03:19:05;;;;;;;79.73;17.47;;;;;;;;;;5012191;28;20479;-72
2024/02/28 03:21:32;;;;;;;79.10;17.83;;;;;;;;;;5012121;28;20448;-72
2024/02/28 03:23:59;;;;;;;76.07;17.07;;;;;;;;;;5011728;28;20474;-72
2024/02/28 03:26:26;;;;;;;78.17;17.47;;;;;;;;;;5011646;28;20977;-72
2024/02/28 03:28:53;;;;;;;74.40;16.37;;;;;;;;;;5011659;28;20451;-72
2024/02/28 03:31:20;;;;;;;75.33;18.03;;;;;;;;;;5012059;28;20860;-72
2024/02/28 03:33:48;;;;;;;78.50;17.20;;;;;;;;;;5011738;28;20439;-72
2024/02/28 03:36:15;;;;;;;74.17;17.20;;;;;;;;;;5011779;28;20503;-72
2024/02/28 03:38:42;;;;;;;77.43;17.90;;;;;;;;;;5011642;28;20490;-72
2024/02/28 03:41:10;;;;;;;77.37;18.23;;;;;;;;;;5011525;28;20447;-72
2024/02/28 03:43:37;;;;;;;73.33;16.47;;;;;;;;;;5011372;28;20958;-70
2024/02/28 03:46:04;;;;;;;77.03;16.70;;;;;;;;;;5011730;28;20849;-71
2024/02/28 03:48:31;;;;;;;76.57;17.40;;;;;;;;;;5029189;28;20643;-71
2024/02/28 03:51:00;;;;;;;77.30;17.40;;;;;;;;;;5031336;28;20455;-71
2024/02/28 03:53:27;;;;;;;77.10;16.43;;;;;;;;;;5031001;28;20449;-71
2024/02/28 03:55:54;;;;;;;80.80;18.77;;;;;;;;;;5031210;28;20975;-71
2024/02/28 03:58:21;;;;;;;76.67;17.63;;;;;;;;;;5031131;28;20847;-71
2024/02/28 04:00:48;;;;;;;76.40;16.90;;;;;;;;;;5031503;28;20443;-71
2024/02/28 04:03:16;;;;;;;75.73;16.50;;;;;;;;;;5031337;28;20457;-72
2024/02/28 04:05:43;;;;;;;76.70;18.00;;;;;;;;;;5030802;28;20477;-72
2024/02/28 04:08:12;;;;;;;72.63;15.60;;;;;;;;;;5031280;28;20446;-71
2024/02/28 04:10:39;;;;;;;78.77;17.27;;;;;;;;;;5030942;28;20541;-70
2024/02/28 04:13:06;;;;;;;78.30;17.37;;;;;;;;;;5031586;28;20454;-71
2024/02/28 04:15:34;;;;;;;75.40;16.47;;;;;;;;;;5033680;28;20482;-71
2024/02/28 04:18:01;;;;;;;73.43;17.37;;;;;;;;;;5035334;28;20508;-72
2024/02/28 04:20:28;;;;;;;76.97;17.00;;;;;;;;;;5035136;28;20447;-72
2024/02/28 04:22:55;;;;;;;79.60;17.50;;;;;;;;;;5035061;28;20506;-72
2024/02/28 04:25:23;;;;;;;79.87;17.33;;;;;;;;;;5034714;28;20874;-71
2024/02/28 04:27:50;;;;;;;81.93;18.30;;;;;;;;;;5031682;28;20476;-71
2024/02/28 04:30:18;;;;;;;77.77;17.80;;;;;;;;;;5015257;28;20464;-71
2024/02/28 04:32:45;;;;;;;79.77;19.20;;;;;;;;;;5014916;28;21038;-71
2024/02/28 04:35:15;;;;;;;80.93;20.10;;;;;;;;;;5014588;28;20456;-72
2024/02/28 04:37:42;;;;;;;75.83;18.33;;;;;;;;;;5014623;28;20485;-71
2024/02/28 04:40:10;;;;;;;78.37;18.70;;;;;;;;;;5015126;28;20442;-71
2024/02/28 04:42:38;;;;;;;77.53;19.07;;;;;;;;;;5014665;28;20967;-72
2024/02/28 04:45:06;;;;;;;79.90;18.77;;;;;;;;;;5028095;28;20446;-71
2024/02/28 04:47:33;;;;;;;78.57;17.60;;;;;;;;;;5034222;28;20481;-71
2024/02/28 04:50:00;;;;;;;76.17;18.00;;;;;;;;;;5034233;28;20446;-72
2024/02/28 04:52:27;;;;;;;76.63;17.80;;;;;;;;;;5034091;28;20458;-71
2024/02/28 04:54:54;;;;;;;75.87;16.53;;;;;;;;;;5034304;28;20442;-71
2024/02/28 04:57:21;;;;;;;75.60;15.63;;;;;;;;;;5027049;28;20462;-71
2024/02/28 04:59:50;;;;;;;77.43;17.90;;;;;;;;;;5014318;28;20476;-71
2024/02/28 05:02:17;;;;;;;78.60;17.20;;;;;;;;;;5014516;28;20450;-72
2024/02/28 05:04:44;;;;;;;88.43;16.47;;;;;;;;;;5013879;28;20449;-71
2024/02/28 05:07:11;;;;;;;74.93;18.30;;;;;;;;;;5014547;28;20464;-71
2024/02/28 05:09:38;;;;;;;75.37;16.80;;;;;;;;;;5014685;28;20453;-72
2024/02/28 05:12:05;;;;;;;77.07;17.47;;;;;;;;;;5014501;28;20611;-72
2024/02/28 05:14:32;;;;;;;73.83;15.53;;;;;;;;;;5014021;28;20462;-72
2024/02/28 05:17:01;;;;;;;75.60;17.23;;;;;;;;;;5014260;28;20477;-72
2024/02/28 05:19:28;;;;;;;73.23;15.73;;;;;;;;;;5014446;28;20490;-72
2024/02/28 05:21:55;;;;;;;74.90;15.17;;;;;;;;;;5006278;28;20496;-72
2024/02/28 05:24:22;;;;;;;73.03;16.40;;;;;;;;;;5014132;28;20447;-72
2024/02/28 05:26:49;;;;;;;71.87;16.17;;;;;;;;;;5013612;28;20467;-72
2024/02/28 05:29:16;;;;;;;75.23;15.23;;;;;;;;;;5014121;28;20451;-72
2024/02/28 05:31:43;;;;;;;73.80;16.40;;;;;;;;;;5013970;28;20507;-72
2024/02/28 05:34:12;;;;;;;70.43;13.40;;;;;;;;;;5013626;28;20451;-72
2024/02/28 05:36:39;;;;;;;73.57;14.80;;;;;;;;;;5013907;28;20839;-72
2024/02/28 05:39:08;;;;;;;74.30;16.30;;;;;;;;;;5013807;28;20994;-72
2024/02/28 05:41:35;;;;;;;74.00;15.70;;;;;;;;;;5013883;28;20450;-71
2024/02/28 05:44:02;;;;;;;80.37;15.73;;;;;;;;;;5013509;28;20447;-71
2024/02/28 05:46:29;;;;;;;75.00;16.40;;;;;;;;;;5013378;28;20483;-71
2024/02/28 05:48:56;;;;;;;71.40;14.30;;;;;;;;;;5013681;28;20812;-71
2024/02/28 05:51:25;;;;;;;78.03;14.53;;;;;;;;;;5013867;28;20455;-72
2024/02/28 05:53:52;;;;;;;71.77;16.00;;;;;;;;;;5013436;28;20450;-72
2024/02/28 05:56:19;;;;;;;74.53;17.00;;;;;;;;;;5013338;28;21017;-72
2024/02/28 05:58:47;;;;;;;74.97;16.00;;;;;;;;;;5013194;28;20632;-71
2024/02/28 06:01:16;;;;;;;71.00;15.20;;;;;;;;;;5019500;28;20454;-72
2024/02/28 06:03:43;;;;;;;73.27;14.03;;;;;;;;;;5033330;28;20461;-72
2024/02/28 06:06:10;;;;;;;70.40;14.33;;;;;;;;;;5027879;28;20466;-72
2024/02/28 06:08:40;;;;;;;73.27;16.03;;;;;;;;;;5013228;28;20920;-73
2024/02/28 06:11:07;;;;;;;75.63;16.50;;;;;;;;;;5013819;28;20454;-72
2024/02/28 06:13:33;;;;;;;71.87;14.87;;;;;;;;;;5013003;28;20877;-73
2024/02/28 06:16:00;;;;;;;79.13;16.30;;;;;;;;;;5013706;28;20470;-73
2024/02/28 06:18:28;;;;;;;72.80;15.40;;;;;;;;;;5013290;28;20490;-73
2024/02/28 06:20:55;;;;;;;74.60;16.57;;;;;;;;;;5013562;28;20446;-72
2024/02/28 06:23:22;;;;;;;72.27;16.47;;;;;;;;;;5013296;28;20924;-72
2024/02/28 06:25:51;;;;;;;74.80;16.57;;;;;;;;;;5013772;28;20471;-72
2024/02/28 06:28:18;;;;;;;77.70;17.07;;;;;;;;;;5012656;28;20439;-72
2024/02/28 06:30:46;;;;;;;80.73;17.77;;;;;;;;;;5013059;28;20509;-72
2024/02/28 06:33:13;;;;;;;78.43;16.53;;;;;;;;;;5018598;28;20450;-72
2024/02/28 06:35:40;;;;;;;79.43;15.97;;;;;;;;;;5032388;28;20467;-73
2024/02/28 06:38:07;;;;;;;78.90;18.00;;;;;;;;;;5031736;28;21040;-72
2024/02/28 06:40:34;;;;;;;75.80;15.93;;;;;;;;;;5024228;28;20461;-73
2024/02/28 06:43:03;;;;;;;73.50;16.40;;;;;;;;;;5012796;28;20467;-73
2024/02/28 06:45:30;;;;;;;78.90;17.17;;;;;;;;;;5012288;28;20559;-73
2024/02/28 06:47:57;;;;;;;74.57;16.20;;;;;;;;;;5012234;28;20455;-72
2024/02/28 06:50:24;;;;;;;79.30;15.60;;;;;;;;;;5012676;28;20458;-72
2024/02/28 06:52:53;;;;;;;76.03;16.87;;;;;;;;;;5011992;28;20453;-72
2024/02/28 06:55:20;;;;;;;78.10;16.63;;;;;;;;;;5011947;28;20542;-72
2024/02/28 06:57:47;;;;;;;70.57;14.00;;;;;;;;;;5012218;28;20455;-72
2024/02/28 07:00:15;;;;;;;75.53;15.93;;;;;;;;;;5012058;28;20793;-72
2024/02/28 07:02:43;;;;;;;73.47;14.13;;;;;;;;;;5012005;28;20455;-72
2024/02/28 07:05:10;;;;;;;71.50;14.67;;;;;;;;;;5012100;28;20453;-72
2024/02/28 07:07:37;;;;;;;73.03;16.73;;;;;;;;;;5011613;28;20447;-72
2024/02/28 07:10:05;;;;;;;77.10;16.50;;;;;;;;;;5011503;28;20452;-72
2024/02/28 07:12:32;;;;;;;73.63;15.10;;;;;;;;;;5012171;28;20499;-72
2024/02/28 07:14:59;;;;;;;76.10;16.40;;;;;;;;;;5011534;28;20444;-72
2024/02/28 07:17:28;;;;;;;72.53;14.33;;;;;;;;;;5011941;28;20485;-72
2024/02/28 07:19:55;;;;;;;73.60;16.03;;;;;;;;;;5011678;28;20499;-72
2024/02/28 07:22:22;;;;;;;75.50;15.40;;;;;;;;;;5011966;28;20486;-72
2024/02/28 07:24:49;;;;;;;78.60;16.13;;;;;;;;;;5011708;28;20776;-72
2024/02/28 07:27:16;;;;;;;74.77;16.20;;;;;;;;;;5011885;28;20471;-71
2024/02/28 07:29:43;;;;;;;74.73;16.80;;;;;;;;;;5011614;28;20450;-72
2024/02/28 07:32:11;;;;;;;76.40;15.47;;;;;;;;;;5011921;28;20486;-72
2024/02/28 07:34:39;;;;;;;74.67;15.60;;;;;;;;;;5019945;28;20454;-72
2024/02/28 07:37:06;;;;;;;75.67;14.70;;;;;;;;;;5032413;28;20823;-72
2024/02/28 07:39:33;;;;;;;75.57;16.80;;;;;;;;;;5031877;28;20856;-72
2024/02/28 07:42:00;;;;;;;76.67;16.63;;;;;;;;;;5020805;28;20478;-72
2024/02/28 07:44:30;;;;;;;74.23;16.10;;;;;;;;;;5012017;28;20448;-73
2024/02/28 07:46:57;;;;;;;73.87;16.23;;;;;;;;;;5014505;28;20493;-73
2024/02/28 07:49:24;;;;;;;75.50;16.37;;;;;;;;;;5033663;28;20452;-73
2024/02/28 07:51:53;;;;;;;75.53;15.67;;;;;;;;;;5036025;28;20942;-72
2024/02/28 07:54:20;;;;;;;72.13;16.60;;;;;;;;;;5018436;28;20459;-72
2024/02/28 07:56:47;;;;;;;80.07;15.70;;;;;;;;;;5018956;28;20477;-72
2024/02/28 07:59:14;;;;;;;71.67;14.00;;;;;;;;;;5018427;28;20926;-73
2024/02/28 08:01:41;;;;;;;73.67;16.13;;;;;;;;;;5034829;28;20475;-72
2024/02/28 08:04:08;;;;;;;75.03;16.10;;;;;;;;;;5036223;28;20451;-70
2024/02/28 08:06:35;;;;;;;72.80;14.77;;;;;;;;;;5037263;28;20991;-72
2024/02/28 08:09:04;;;;;;;76.00;16.27;;;;;;;;;;5037693;28;20820;-73
2024/02/28 08:11:31;;;;;;;73.07;15.67;;;;;;;;;;5037126;28;20443;-73
2024/02/28 08:13:58;;;;;;;71.13;14.67;;;;;;;;;;5036988;28;20454;-73
2024/02/28 08:16:25;;;;;;;76.50;16.47;;;;;;;;;;5037331;28;20470;-73
2024/02/28 08:18:52;;;;;;;76.67;16.07;;;;;;;;;;5019956;28;21007;-73
2024/02/28 08:21:19;;;;;;;73.70;15.40;;;;;;;;;;5018368;28;20950;-72
2024/02/28 08:23:47;;;;;;;69.40;15.03;;;;;;;;;;5027796;28;20838;-72
2024/02/28 08:26:15;;;;;;;74.87;16.57;;;;;;;;;;5038205;28;20474;-72
2024/02/28 08:28:43;;;;;;;73.80;16.20;;;;;;;;;;5038308;28;20452;-72
2024/02/28 08:31:10;;;;;;;73.77;16.10;;;;;;;;;;5037939;28;20459;-72
2024/02/28 08:33:37;;;;;;;76.13;16.17;;;;;;;;;;5038022;28;20955;-72
2024/02/28 08:36:04;;;;;;;73.60;16.93;;;;;;;;;;5038100;28;20473;-72
2024/02/28 08:38:31;;;;;;;76.77;17.50;;;;;;;;;;5022515;28;20459;-72
2024/02/28 08:40:58;;;;;;;81.67;17.80;;;;;;;;;;5018440;28;20800;-72
2024/02/28 08:43:27;;;;;;;72.33;15.97;;;;;;;;;;5018257;28;20460;-72
2024/02/28 08:45:55;;;;;;;81.80;18.70;;;;;;;;;;5017970;28;20562;-72
2024/02/28 08:48:22;;;;;;;72.47;15.87;;;;;;;;;;5018342;28;20451;-72
2024/02/28 08:50:49;;;;;;;77.17;16.57;;;;;;;;;;5018093;28;20483;-71
2024/02/28 08:53:16;;;;;;;73.97;16.90;;;;;;;;;;5018468;28;20836;-71
2024/02/28 08:55:44;;;;;;;75.07;17.57;;;;;;;;;;5035123;28;20489;-73
2024/02/28 08:58:11;;;;;;;81.70;17.30;;;;;;;;;;5038046;28;20445;-72
2024/02/28 09:00:39;;;;;;;78.70;16.97;;;;;;;;;;5036206;28;20493;-72
2024/02/28 09:03:07;;;;;;;76.23;16.40;;;;;;;;;;5007521;28;20475;-73
2024/02/28 09:05:34;;;;;;;72.37;15.03;;;;;;;;;;5022361;28;20729;-72
2024/02/28 09:08:02;;;;;;;73.67;16.53;;;;;;;;;;5035070;28;20481;-72
2024/02/28 09:10:31;;;;;;;74.40;17.07;;;;;;;;;;5028447;28;20460;-72
2024/02/28 09:12:58;;;;;;;76.73;16.80;;;;;;;;;;5031320;28;20453;-72
2024/02/28 09:15:25;;;;;;;77.00;16.73;;;;;;;;;;5014842;28;20442;-71
2024/02/28 09:17:53;;;;;;;76.20;16.93;;;;;;;;;;5023362;28;20461;-71
2024/02/28 09:20:21;;;;;;;83.77;18.57;;;;;;;;;;5020365;28;21021;-71
2024/02/28 09:22:48;;;;;;;78.47;17.57;;;;;;;;;;5033828;28;20486;-71
2024/02/28 09:25:15;;;;;;;75.30;17.87;;;;;;;;;;5014566;28;20455;-71
2024/02/28 09:27:43;;;;;;;74.40;16.20;;;;;;;;;;5015060;28;20452;-72
2024/02/28 09:30:10;;;;;;;76.87;18.03;;;;;;;;;;5014909;28;20542;-72
2024/02/28 09:32:37;;;;;;;78.90;16.90;;;;;;;;;;5015383;28;20455;-71
2024/02/28 09:35:06;;;;;;;77.30;17.67;;;;;;;;;;5014315;28;20448;-72
2024/02/28 09:37:33;;;;;;;74.03;16.27;;;;;;;;;;5014508;28;20502;-71
2024/02/28 09:40:02;;;;;;;74.30;16.00;;;;;;;;;;5024728;28;20831;-71
2024/02/28 09:42:29;;;;;;;74.20;17.17;;;;;;;;;;5034633;28;20451;-71
2024/02/28 09:44:58;;;;;;;73.73;16.90;;;;;;;;;;5015631;28;20453;-71
2024/02/28 09:47:25;;;;;;;73.97;16.17;;;;;;;;;;5013983;28;21006;-71
2024/02/28 09:49:53;;;;;;;76.23;17.43;;;;;;;;;;5014589;28;20444;-71
2024/02/28 09:52:22;;;;;;;79.47;17.90;;;;;;;;;;5014000;28;20474;-71
2024/02/28 09:54:49;;;;;;;74.93;17.10;;;;;;;;;;5031356;28;20799;-72
2024/02/28 09:57:17;;;;;;;73.90;16.23;;;;;;;;;;5034427;28;20463;-71
2024/02/28 09:59:45;;;;;;;76.37;16.20;;;;;;;;;;5034462;28;20488;-71
2024/02/28 10:02:13;;;;;;;79.10;17.07;;;;;;;;;;5034144;28;20450;-72
2024/02/28 10:04:40;;;;;;;71.70;14.47;;;;;;;;;;5017727;28;20458;-71
2024/02/28 10:07:14;;;;;;;74.83;16.23;;;;;;;;;;5013888;28;20487;-71
2024/02/28 10:09:42;;;;;;;74.17;15.37;;;;;;;;;;5013782;28;20453;-71
2024/02/28 10:12:10;;;;;;;77.63;16.40;;;;;;;;;;5005770;28;20459;-71
2024/02/28 10:14:38;;;;;;;72.80;16.20;;;;;;;;;;5013754;28;20445;-71
2024/02/28 10:17:05;;;;;;;73.63;16.17;;;;;;;;;;5024568;28;20971;-71
2024/02/28 10:19:32;;;;;;;74.33;15.47;;;;;;;;;;5033760;28;20493;-71
2024/02/28 10:22:00;;;;;;;74.67;16.20;;;;;;;;;;5031720;28;20457;-71
2024/02/28 10:24:27;;;;;;;78.20;17.10;;;;;;;;;;5020020;28;20453;-71
2024/02/28 10:26:56;;;;;;;73.87;15.77;;;;;;;;;;5034733;28;20464;-70
2024/02/28 10:29:23;;;;;;;73.43;16.67;;;;;;;;;;5033725;28;20446;-73
2024/02/28 10:31:50;;;;;;;74.77;16.13;;;;;;;;;;5024397;28;20802;-71
2024/02/28 10:34:18;;;;;;;72.57;15.80;;;;;;;;;;5013415;28;20452;-71
2024/02/28 10:36:46;;;;;;;74.47;14.80;;;;;;;;;;5013109;28;20475;-71
2024/02/28 10:39:13;;;;;;;75.87;15.70;;;;;;;;;;5013218;28;20490;-71
2024/02/28 10:41:41;;;;;;;71.03;14.00;;;;;;;;;;5012958;28;20547;-71
2024/02/28 10:44:10;;;;;;;75.60;15.73;;;;;;;;;;5013551;28;20460;-71
2024/02/28 10:46:38;;;;;;;74.27;15.70;;;;;;;;;;5019341;28;20593;-71
2024/02/28 10:49:06;;;;;;;73.50;15.63;;;;;;;;;;5013170;28;20485;-70
2024/02/28 10:51:36;;;;;;;74.60;16.50;;;;;;;;;;5027643;28;20458;-70
2024/02/28 10:54:09;;;;;;;76.87;15.37;;;;;;;;;;5032163;28;20970;-70
2024/02/28 10:56:36;;;;;;;73.50;13.30;;;;;;;;;;5025817;28;20467;-70
2024/02/28 10:59:04;;;;;;;78.53;16.40;;;;;;;;;;5012518;28;20448;-70
2024/02/28 11:01:32;;;;;;;78.07;16.90;;;;;;;;;;5012974;28;20449;-70
2024/02/28 11:03:59;;;;;;;76.97;16.03;;;;;;;;;;5012577;28;20451;-70
2024/02/28 11:06:27;;;;;;;76.03;15.83;;;;;;;;;;5012866;28;20810;-70
2024/02/28 11:08:56;;;;;;;80.97;17.73;;;;;;;;;;5020928;28;20451;-70
2024/02/28 11:11:23;;;;;;;76.87;17.43;;;;;;;;;;5012603;28;20452;-70
2024/02/28 11:13:54;;;;;;;74.67;15.90;;;;;;;;;;5021022;28;20447;-70
2024/02/28 11:16:27;;;;;;;76.60;15.87;;;;;;;;;;5032264;28;20522;-70
2024/02/28 11:18:56;;;;;;;76.13;16.03;;;;;;;;;;5031278;28;20513;-71
2024/02/28 11:21:25;;;;;;;76.97;17.33;;;;;;;;;;5012592;28;20575;-71
2024/02/28 11:23:53;;;;;;;75.47;16.27;;;;;;;;;;5028140;28;20451;-71
2024/02/28 11:26:21;;;;;;;78.87;17.80;;;;;;;;;;5016634;28;20991;-71
2024/02/28 11:28:48;;;;;;;80.17;18.17;;;;;;;;;;5032191;28;20546;-71
2024/02/28 11:31:16;;;;;;;75.93;17.23;;;;;;;;;;5032146;28;20827;-71
2024/02/28 11:33:43;;;;;;;78.13;16.70;;;;;;;;;;5016620;28;20546;-71
2024/02/28 11:36:13;;;;;;;84.20;17.17;;;;;;;;;;5011963;28;20468;-71
2024/02/28 11:38:40;;;;;;;76.87;16.27;;;;;;;;;;5027281;28;20451;-71
2024/02/28 11:41:07;;;;;;;75.40;15.63;;;;;;;;;;5015714;28;20501;-71
2024/02/28 11:43:35;;;;;;;79.00;17.90;;;;;;;;;;5025698;28;20460;-71
2024/02/28 11:46:04;;;;;;;77.23;16.50;;;;;;;;;;5012085;28;20475;-70
2024/02/28 11:48:32;;;;;;;76.87;15.40;;;;;;;;;;5017792;28;20767;-71
2024/02/28 11:50:59;;;;;;;82.20;17.47;;;;;;;;;;5013910;28;20788;-71
2024/02/28 11:53:28;;;;;;;75.83;16.47;;;;;;;;;;5012206;28;20456;-71
2024/02/28 11:55:56;;;;;;;77.33;16.90;;;;;;;;;;5029508;28;20474;-71
2024/02/28 11:58:24;;;;;;;78.53;17.40;;;;;;;;;;5031963;28;20860;-71
2024/02/28 12:00:51;;;;;;;77.00;16.43;;;;;;;;;;5015469;28;20482;-71
2024/02/28 12:03:21;;;;;;;79.63;17.73;;;;;;;;;;5031770;28;20451;-70
2024/02/28 12:05:49;;;;;;;80.07;16.07;;;;;;;;;;5024189;28;20518;-70
2024/02/28 12:08:18;;;;;;;79.90;16.57;;;;;;;;;;5004026;28;20506;-70
2024/02/28 12:10:47;;;;;;;79.67;16.50;;;;;;;;;;5027827;28;20444;-71
2024/02/28 12:13:17;;;;;;;76.53;15.80;;;;;;;;;;5020611;28;20454;-70
2024/02/28 12:15:44;;;;;;;78.47;17.30;;;;;;;;;;5011861;28;20504;-70
2024/02/28 12:18:12;;;;;;;77.17;15.40;;;;;;;;;;5011921;28;20447;-70
2024/02/28 12:20:39;;;;;;;76.03;16.37;;;;;;;;;;5012023;28;20498;-70
2024/02/28 12:23:08;;;;;;;74.57;17.20;;;;;;;;;;5011695;28;20459;-71
2024/02/28 12:25:36;;;;;;;77.33;16.00;;;;;;;;;;5011702;28;20508;-71
2024/02/28 12:28:06;;;;;;;78.70;18.37;;;;;;;;;;5012010;28;20484;-70
2024/02/28 12:30:41;;;;;;;76.70;17.10;;;;;;;;;;5012010;28;20486;-70
2024/02/28 12:33:08;;;;;;;76.87;16.53;;;;;;;;;;5014216;28;20450;-70
2024/02/28 12:35:35;;;;;;;79.47;17.87;;;;;;;;;;5031442;28;20476;-70
2024/02/28 12:38:02;;;;;;;77.43;16.13;;;;;;;;;;5033445;28;20447;-70
2024/02/28 12:40:29;;;;;;;73.93;14.97;;;;;;;;;;5020648;28;20553;-70
2024/02/28 12:42:56;;;;;;;74.23;16.00;;;;;;;;;;5018798;28;20836;-70
2024/02/28 12:45:24;;;;;;;75.57;15.83;;;;;;;;;;5015122;28;20797;-70
2024/02/28 12:47:53;;;;;;;75.17;15.33;;;;;;;;;;5031816;28;20459;-72
2024/02/28 12:50:21;;;;;;;74.10;16.30;;;;;;;;;;5015356;28;20449;-70
2024/02/28 12:52:53;;;;;;;73.57;14.93;;;;;;;;;;5015722;28;20464;-71
2024/02/28 12:55:20;;;;;;;72.10;15.50;;;;;;;;;;5015274;28;20503;-68
2024/02/28 12:57:47;;;;;;;77.00;15.00;;;;;;;;;;5022858;28;20443;-70
2024/02/28 13:00:14;;;;;;;72.70;15.40;;;;;;;;;;5034511;28;20493;-69
2024/02/28 13:02:43;;;;;;;76.67;16.10;;;;;;;;;;5034915;28;20453;-71
2024/02/28 13:05:11;;;;;;;76.77;16.00;;;;;;;;;;5034442;28;20813;-71
2024/02/28 13:07:38;;;;;;;75.33;16.27;;;;;;;;;;5034979;28;20822;-70
2024/02/28 13:10:05;;;;;;;74.07;16.23;;;;;;;;;;5034223;28;20446;-72
2024/02/28 13:12:33;;;;;;;72.80;15.10;;;;;;;;;;5021041;28;20453;-71
2024/02/28 13:15:00;;;;;;;76.37;16.57;;;;;;;;;;5015915;28;20953;-70
2024/02/28 13:17:27;;;;;;;75.07;16.53;;;;;;;;;;5030224;28;20841;-71
2024/02/28 13:19:55;;;;;;;72.80;15.10;;;;;;;;;;5014973;28;20448;-71
2024/02/28 13:22:23;;;;;;;74.57;16.23;;;;;;;;;;5019243;28;20810;-71
2024/02/28 13:24:50;;;;;;;71.60;14.97;;;;;;;;;;5034388;28;20465;-70
2024/02/28 13:27:17;;;;;;;76.33;16.27;;;;;;;;;;5034625;28;20462;-71
2024/02/28 13:29:44;;;;;;;74.57;15.50;;;;;;;;;;5019499;28;20449;-71
2024/02/28 13:32:11;;;;;;;72.57;13.53;;;;;;;;;;5014707;28;20447;-71
2024/02/28 13:34:38;;;;;;;74.10;15.80;;;;;;;;;;5014494;28;20475;-70
2024/02/28 13:37:08;;;;;;;72.77;14.90;;;;;;;;;;5014606;28;20560;-70
2024/02/28 13:39:35;;;;;;;73.30;14.43;;;;;;;;;;5014196;28;20452;-70
2024/02/28 13:42:06;;;;;;;71.17;14.20;;;;;;;;;;5023676;28;20487;-70
2024/02/28 13:44:34;;;;;;;68.27;12.90;;;;;;;;;;5028960;28;20535;-71
2024/02/28 13:47:01;;;;;;;70.90;13.47;;;;;;;;;;5013407;28;20512;-71
2024/02/28 13:49:28;;;;;;;74.27;15.50;;;;;;;;;;5014462;28;20535;-71
2024/02/28 13:51:55;;;;;;;71.77;14.60;;;;;;;;;;5022464;28;20451;-71
2024/02/28 13:54:24;;;;;;;71.67;13.57;;;;;;;;;;5029934;28;20454;-71
2024/02/28 13:56:51;;;;;;;73.30;12.33;;;;;;;;;;5014368;28;20471;-71
2024/02/28 13:59:18;;;;;;;72.17;14.27;;;;;;;;;;5013924;28;20443;-71
2024/02/28 14:01:45;;;;;;;69.80;13.77;;;;;;;;;;5014208;28;20846;-71
2024/02/28 14:04:12;;;;;;;70.53;13.63;;;;;;;;;;5022356;28;20451;-70
2024/02/28 14:06:39;;;;;;;70.37;13.10;;;;;;;;;;5022464;28;20467;-70
2024/02/28 14:09:06;;;;;;;73.70;14.70;;;;;;;;;;5014068;28;20944;-70
2024/02/28 14:11:35;;;;;;;71.00;13.00;;;;;;;;;;5013961;28;20454;-70
2024/02/28 14:14:02;;;;;;;71.53;13.53;;;;;;;;;;5014033;28;20455;-71
2024/02/28 14:16:29;;;;;;;73.80;13.40;;;;;;;;;;5018437;28;20850;-71
2024/02/28 14:18:56;;;;;;;71.23;13.07;;;;;;;;;;5033353;28;20500;-71
2024/02/28 14:21:24;;;;;;;72.10;13.50;;;;;;;;;;5021845;28;20501;-71
2024/02/28 14:23:51;;;;;;;69.17;13.50;;;;;;;;;;5013743;28;20999;-71